WXM80 ListenWXM80 Stop

You find our weather info also at:

UK Metoffice

WeatherCloud

Weather Underground

Northeastern Weather Network

AWEKAS

Citizen Weather Observer Program (CWOP)

HAMweather, WeatherForYou, PWS Weather


Weather Underground History page Text

Daily Summary for January 26, 2017 Units:  Both    English   Metric
« Previous Day
Next Day »
Daily Weekly Monthly Yearly Custom
  High: Low: Average:
Temperature: 52.1 °F /  11.2 °C 42.2 °F /  5.7 °C 45.9 °F /  7.7 °C
Dew Point: 46.2 °F /  7.9 °C 30.6 °F /  -0.8 °C 38.4 °F /  3.6 °C
Humidity: 93 % 53 % 76 %
Wind Speed: 16.6 mph /  26.7 km/h - 4.4 mph /  7.1 km/h
Wind Gust: 24.2 mph /  38.9 km/h - -
Wind:- - WSW
Pressure: 29.53 in /  999.9 hPa 29.27 in /  991.1 hPa -
Precipitation: 0.01 in /  0.25 mm    
Historical Graphs
 
 
Tabular Data for January 26, 2017
Time Temperature Dew Point Pressure Wind Wind Speed Wind Gust Humidity Rainfall Rate (Hourly)
00:01 45.4 °F /  7.4 °C 38.6 °F /  3.7 °C 29.53 in /  999.9 hPa South 1.2 mph /  1.9 km/h 3.5 mph /  5.6 km/h 77 % 0.00 in /  0 mm
00:06 45.6 °F /  7.6 °C 38.8 °F /  3.8 °C 29.53 in /  999.9 hPa SSW 1.1 mph /  1.8 km/h 6.9 mph /  11.1 km/h 77 % 0.00 in /  0 mm
00:11 45.6 °F /  7.6 °C 38.5 °F /  3.6 °C 29.52 in /  999.5 hPa SSW 2.2 mph /  3.5 km/h 5.8 mph /  9.3 km/h 76 % 0.00 in /  0 mm
00:16 45.7 °F /  7.6 °C 38.6 °F /  3.7 °C 29.52 in /  999.5 hPa West 1.5 mph /  2.4 km/h 6.9 mph /  11.1 km/h 76 % 0.00 in /  0 mm
00:21 45.8 °F /  7.7 °C 38.7 °F /  3.7 °C 29.53 in /  999.9 hPa SSW 3.8 mph /  6.1 km/h 8.1 mph /  13 km/h 76 % 0.00 in /  0 mm
00:26 45.9 °F /  7.7 °C 38.8 °F /  3.8 °C 29.52 in /  999.5 hPa SW 5.6 mph /  9 km/h 8.1 mph /  13 km/h 76 % 0.00 in /  0 mm
00:31 46.0 °F /  7.8 °C 38.9 °F /  3.8 °C 29.52 in /  999.5 hPa SW 4.1 mph /  6.6 km/h 9.2 mph /  14.8 km/h 76 % 0.00 in /  0 mm
00:36 46.0 °F /  7.8 °C 38.9 °F /  3.8 °C 29.52 in /  999.5 hPa SW 1.7 mph /  2.7 km/h 3.5 mph /  5.6 km/h 76 % 0.00 in /  0 mm
00:41 46.0 °F /  7.8 °C 38.9 °F /  3.8 °C 29.52 in /  999.5 hPa WSW 3.3 mph /  5.3 km/h 6.9 mph /  11.1 km/h 76 % 0.00 in /  0 mm
00:46 46.1 °F /  7.8 °C 39.3 °F /  4.1 °C 29.52 in /  999.5 hPa SW 1.3 mph /  2.1 km/h 2.3 mph /  3.7 km/h 77 % 0.00 in /  0 mm
00:52 46.1 °F /  7.8 °C 39.3 °F /  4.1 °C 29.51 in /  999.2 hPa South 0.8 mph /  1.3 km/h 3.5 mph /  5.6 km/h 77 % 0.00 in /  0 mm
00:57 46.1 °F /  7.8 °C 39.3 °F /  4.1 °C 29.51 in /  999.2 hPa WSW 0.5 mph /  0.8 km/h 3.5 mph /  5.6 km/h 77 % 0.00 in /  0 mm
01:02 46.1 °F /  7.8 °C 39.3 °F /  4.1 °C 29.51 in /  999.2 hPa SW 4.3 mph /  6.9 km/h 8.1 mph /  13 km/h 77 % 0.00 in /  0 mm
01:07 46.2 °F /  7.9 °C 39.4 °F /  4.1 °C 29.51 in /  999.2 hPa WSW 3.8 mph /  6.1 km/h 6.9 mph /  11.1 km/h 77 % 0.00 in /  0 mm
01:12 46.3 °F /  7.9 °C 39.5 °F /  4.2 °C 29.51 in /  999.2 hPa SSW 1.8 mph /  2.9 km/h 3.5 mph /  5.6 km/h 77 % 0.00 in /  0 mm
01:17 46.3 °F /  7.9 °C 39.5 °F /  4.2 °C 29.50 in /  998.9 hPa SW 1.9 mph /  3.1 km/h 3.5 mph /  5.6 km/h 77 % 0.00 in /  0 mm
01:22 46.5 °F /  8.1 °C 39.7 °F /  4.3 °C 29.50 in /  998.9 hPa SSW 2.8 mph /  4.5 km/h 6.0 mph /  9.7 km/h 77 % 0.00 in /  0 mm
01:27 46.5 °F /  8.1 °C 39.7 °F /  4.3 °C 29.50 in /  998.9 hPa SSW 2.6 mph /  4.2 km/h 5.0 mph /  8 km/h 77 % 0.00 in /  0 mm
01:32 46.6 °F /  8.1 °C 39.8 °F /  4.3 °C 29.50 in /  998.9 hPa SSW 2.8 mph /  4.5 km/h 3.5 mph /  5.6 km/h 77 % 0.00 in /  0 mm
01:37 46.7 °F /  8.2 °C 39.9 °F /  4.4 °C 29.49 in /  998.5 hPa SSW 1.6 mph /  2.6 km/h 3.5 mph /  5.6 km/h 77 % 0.00 in /  0 mm
01:39 46.8 °F /  8.2 °C 40.0 °F /  4.4 °C 29.49 in /  998.5 hPa SW 2.1 mph /  3.4 km/h 3.5 mph /  5.6 km/h 77 % 0.00 in /  0 mm
01:44 46.9 °F /  8.3 °C 40.1 °F /  4.5 °C 29.49 in /  998.5 hPa WSW 1.4 mph /  2.3 km/h 6.0 mph /  9.7 km/h 77 % 0.00 in /  0 mm
01:49 47.1 °F /  8.4 °C 40.3 °F /  4.6 °C 29.49 in /  998.5 hPa WSW 1.4 mph /  2.3 km/h 6.9 mph /  11.1 km/h 77 % 0.00 in /  0 mm
01:54 47.3 °F /  8.5 °C 40.5 °F /  4.7 °C 29.49 in /  998.5 hPa WSW 3.0 mph /  4.8 km/h 10.4 mph /  16.7 km/h 77 % 0.00 in /  0 mm
01:59 47.5 °F /  8.6 °C 40.3 °F /  4.6 °C 29.49 in /  998.5 hPa SW 1.5 mph /  2.4 km/h 4.6 mph /  7.4 km/h 76 % 0.00 in /  0 mm
02:04 47.6 °F /  8.7 °C 40.4 °F /  4.7 °C 29.49 in /  998.5 hPa SW 0.2 mph /  0.3 km/h 2.3 mph /  3.7 km/h 76 % 0.00 in /  0 mm
02:09 47.7 °F /  8.7 °C 40.5 °F /  4.7 °C 29.49 in /  998.5 hPa Calm     76 % 0.00 in /  0 mm
02:14 47.8 °F /  8.8 °C 40.6 °F /  4.8 °C 29.49 in /  998.5 hPa SW 1.5 mph /  2.4 km/h 3.5 mph /  5.6 km/h 76 % 0.00 in /  0 mm
02:19 47.8 °F /  8.8 °C 40.6 °F /  4.8 °C 29.48 in /  998.2 hPa SW 4.8 mph /  7.7 km/h 9.2 mph /  14.8 km/h 76 % 0.00 in /  0 mm
02:24 47.8 °F /  8.8 °C 40.9 °F /  4.9 °C 29.48 in /  998.2 hPa SSW 2.2 mph /  3.5 km/h 6.9 mph /  11.1 km/h 77 % 0.00 in /  0 mm
02:29 47.8 °F /  8.8 °C 40.9 °F /  4.9 °C 29.48 in /  998.2 hPa West 0.2 mph /  0.3 km/h 3.5 mph /  5.6 km/h 77 % 0.00 in /  0 mm
02:34 47.8 °F /  8.8 °C 40.9 °F /  4.9 °C 29.48 in /  998.2 hPa South 0.6 mph /  1 km/h 2.3 mph /  3.7 km/h 77 % 0.00 in /  0 mm
02:39 47.7 °F /  8.7 °C 41.2 °F /  5.1 °C 29.48 in /  998.2 hPa SW 3.0 mph /  4.8 km/h 4.0 mph /  6.4 km/h 78 % 0.00 in /  0 mm
02:44 47.7 °F /  8.7 °C 41.2 °F /  5.1 °C 29.47 in /  997.9 hPa WSW 4.9 mph /  7.9 km/h 7.0 mph /  11.3 km/h 78 % 0.00 in /  0 mm
02:49 47.6 °F /  8.7 °C 41.4 °F /  5.2 °C 29.48 in /  998.2 hPa SW 4.5 mph /  7.2 km/h 5.8 mph /  9.3 km/h 79 % 0.00 in /  0 mm
02:54 47.5 °F /  8.6 °C 41.3 °F /  5.2 °C 29.47 in /  997.9 hPa SW 0.7 mph /  1.1 km/h 3.5 mph /  5.6 km/h 79 % 0.00 in /  0 mm
02:59 47.5 °F /  8.6 °C 41.3 °F /  5.2 °C 29.47 in /  997.9 hPa SW 2.8 mph /  4.5 km/h 5.8 mph /  9.3 km/h 79 % 0.00 in /  0 mm
03:05 47.4 °F /  8.6 °C 41.5 °F /  5.3 °C 29.46 in /  997.5 hPa WSW 4.2 mph /  6.8 km/h 4.2 mph /  6.8 km/h 80 % 0.00 in /  0 mm
03:10 47.4 °F /  8.6 °C 41.5 °F /  5.3 °C 29.46 in /  997.5 hPa West 2.1 mph /  3.4 km/h 5.8 mph /  9.3 km/h 80 % 0.00 in /  0 mm
03:13 47.4 °F /  8.6 °C 41.5 °F /  5.3 °C 29.46 in /  997.5 hPa WSW 1.5 mph /  2.4 km/h 3.5 mph /  5.6 km/h 80 % 0.00 in /  0 mm
03:18 47.3 °F /  8.5 °C 41.8 °F /  5.4 °C 29.45 in /  997.2 hPa SW 6.2 mph /  10 km/h 10.4 mph /  16.7 km/h 81 % 0.00 in /  0 mm
03:23 47.2 °F /  8.4 °C 41.7 °F /  5.4 °C 29.45 in /  997.2 hPa WSW 4.0 mph /  6.4 km/h 9.2 mph /  14.8 km/h 81 % 0.00 in /  0 mm
03:28 47.2 °F /  8.4 °C 42.0 °F /  5.6 °C 29.45 in /  997.2 hPa SW 1.7 mph /  2.7 km/h 3.5 mph /  5.6 km/h 82 % 0.00 in /  0 mm
03:33 47.1 °F /  8.4 °C 41.9 °F /  5.5 °C 29.46 in /  997.5 hPa SSW 4.7 mph /  7.6 km/h 8.1 mph /  13 km/h 82 % 0.00 in /  0 mm
03:38 47.1 °F /  8.4 °C 42.2 °F /  5.7 °C 29.46 in /  997.5 hPa WSW 0.4 mph /  0.6 km/h 3.0 mph /  4.8 km/h 83 % 0.00 in /  0 mm
03:43 47.1 °F /  8.4 °C 42.2 °F /  5.7 °C 29.45 in /  997.2 hPa SW 4.8 mph /  7.7 km/h 8.0 mph /  12.9 km/h 83 % 0.00 in /  0 mm
03:48 47.0 °F /  8.3 °C 42.4 °F /  5.8 °C 29.44 in /  996.8 hPa SW 3.5 mph /  5.6 km/h 8.1 mph /  13 km/h 84 % 0.00 in /  0 mm
03:53 47.0 °F /  8.3 °C 42.4 °F /  5.8 °C 29.44 in /  996.8 hPa SSW 1.5 mph /  2.4 km/h 3.5 mph /  5.6 km/h 84 % 0.00 in /  0 mm
03:58 46.9 °F /  8.3 °C 42.3 °F /  5.7 °C 29.43 in /  996.5 hPa SW 2.0 mph /  3.2 km/h 3.5 mph /  5.6 km/h 84 % 0.00 in /  0 mm
04:03 46.8 °F /  8.2 °C 42.2 °F /  5.7 °C 29.42 in /  996.2 hPa SW 2.5 mph /  4 km/h 5.8 mph /  9.3 km/h 84 % 0.00 in /  0 mm
04:08 46.7 °F /  8.2 °C 42.4 °F /  5.8 °C 29.42 in /  996.2 hPa SW 1.0 mph /  1.6 km/h 2.3 mph /  3.7 km/h 85 % 0.00 in /  0 mm
04:13 46.6 °F /  8.1 °C 42.3 °F /  5.7 °C 29.42 in /  996.2 hPa SSW 3.2 mph /  5.1 km/h 6.9 mph /  11.1 km/h 85 % 0.00 in /  0 mm
04:18 46.5 °F /  8.1 °C 42.2 °F /  5.7 °C 29.42 in /  996.2 hPa SSW 4.4 mph /  7.1 km/h 5.8 mph /  9.3 km/h 85 % 0.00 in /  0 mm
04:23 46.5 °F /  8.1 °C 42.2 °F /  5.7 °C 29.42 in /  996.2 hPa SSW 3.7 mph /  6 km/h 6.0 mph /  9.7 km/h 85 % 0.00 in /  0 mm
04:29 46.5 °F /  8.1 °C 42.2 °F /  5.7 °C 29.43 in /  996.5 hPa SW 3.6 mph /  5.8 km/h 6.9 mph /  11.1 km/h 85 % 0.00 in /  0 mm
04:34 46.5 °F /  8.1 °C 42.2 °F /  5.7 °C 29.43 in /  996.5 hPa SW 3.0 mph /  4.8 km/h 5.8 mph /  9.3 km/h 85 % 0.00 in /  0 mm
04:39 46.6 °F /  8.1 °C 42.0 °F /  5.6 °C 29.43 in /  996.5 hPa SW 6.0 mph /  9.7 km/h 8.0 mph /  12.9 km/h 84 % 0.00 in /  0 mm
04:42 46.7 °F /  8.2 °C 42.1 °F /  5.6 °C 29.43 in /  996.5 hPa SW 6.6 mph /  10.6 km/h 10.4 mph /  16.7 km/h 84 % 0.00 in /  0 mm
04:47 46.8 °F /  8.2 °C 41.9 °F /  5.5 °C 29.43 in /  996.5 hPa SW 4.3 mph /  6.9 km/h 6.9 mph /  11.1 km/h 83 % 0.00 in /  0 mm
04:52 46.9 °F /  8.3 °C 42.0 °F /  5.6 °C 29.43 in /  996.5 hPa SW 5.7 mph /  9.2 km/h 8.1 mph /  13 km/h 83 % 0.00 in /  0 mm
04:57 46.9 °F /  8.3 °C 42.0 °F /  5.6 °C 29.42 in /  996.2 hPa West 3.4 mph /  5.5 km/h 4.6 mph /  7.4 km/h 83 % 0.00 in /  0 mm
05:02 47.0 °F /  8.3 °C 41.8 °F /  5.4 °C 29.42 in /  996.2 hPa WNW 2.8 mph /  4.5 km/h 5.8 mph /  9.3 km/h 82 % 0.00 in /  0 mm
05:07 47.0 °F /  8.3 °C 41.8 °F /  5.4 °C 29.43 in /  996.5 hPa WSW 1.8 mph /  2.9 km/h 3.5 mph /  5.6 km/h 82 % 0.00 in /  0 mm
05:12 47.0 °F /  8.3 °C 41.8 °F /  5.4 °C 29.42 in /  996.2 hPa SW 0.3 mph /  0.5 km/h 2.0 mph /  3.2 km/h 82 % 0.00 in /  0 mm
05:17 47.0 °F /  8.3 °C 41.8 °F /  5.4 °C 29.42 in /  996.2 hPa SW 0.9 mph /  1.4 km/h 3.5 mph /  5.6 km/h 82 % 0.00 in /  0 mm
05:18 47.0 °F /  8.3 °C 41.8 °F /  5.4 °C 29.42 in /  996.2 hPa SW 1.0 mph /  1.6 km/h 2.3 mph /  3.7 km/h 82 % 0.00 in /  0 mm
05:23 47.0 °F /  8.3 °C 41.8 °F /  5.4 °C 29.41 in /  995.8 hPa Calm     82 % 0.00 in /  0 mm
05:28 46.9 °F /  8.3 °C 41.4 °F /  5.2 °C 29.41 in /  995.8 hPa NNW 0.1 mph /  0.2 km/h 1.2 mph /  1.9 km/h 81 % 0.00 in /  0 mm
05:33 46.8 °F /  8.2 °C 41.3 °F /  5.2 °C 29.41 in /  995.8 hPa Calm     81 % 0.00 in /  0 mm
05:38 46.5 °F /  8.1 °C 41.3 °F /  5.2 °C 29.41 in /  995.8 hPa NW 2.0 mph /  3.2 km/h 3.5 mph /  5.6 km/h 82 % 0.00 in /  0 mm
05:43 46.3 °F /  7.9 °C 41.1 °F /  5.1 °C 29.40 in /  995.5 hPa Calm     82 % 0.00 in /  0 mm
05:48 45.9 °F /  7.7 °C 40.7 °F /  4.8 °C 29.41 in /  995.8 hPa NW 0.3 mph /  0.5 km/h 3.5 mph /  5.6 km/h 82 % 0.00 in /  0 mm
05:53 45.5 °F /  7.5 °C 40.3 °F /  4.6 °C 29.41 in /  995.8 hPa NW 1.5 mph /  2.4 km/h 2.0 mph /  3.2 km/h 82 % 0.00 in /  0 mm
05:58 45.2 °F /  7.3 °C 40.0 °F /  4.4 °C 29.41 in /  995.8 hPa WNW 0.4 mph /  0.6 km/h 2.3 mph /  3.7 km/h 82 % 0.00 in /  0 mm
06:04 44.8 °F /  7.1 °C 39.6 °F /  4.2 °C 29.40 in /  995.5 hPa NW 0.4 mph /  0.6 km/h 2.3 mph /  3.7 km/h 82 % 0.00 in /  0 mm
06:09 44.5 °F /  6.9 °C 39.7 °F /  4.3 °C 29.40 in /  995.5 hPa NW 0.1 mph /  0.2 km/h 1.0 mph /  1.6 km/h 83 % 0.00 in /  0 mm
06:14 44.4 °F /  6.9 °C 39.5 °F /  4.2 °C 29.41 in /  995.8 hPa Calm     83 % 0.00 in /  0 mm
06:19 44.2 °F /  6.8 °C 39.4 °F /  4.1 °C 29.41 in /  995.8 hPa Calm   2.0 mph /  3.2 km/h 83 % 0.00 in /  0 mm
06:24 44.0 °F /  6.7 °C 39.5 °F /  4.2 °C 29.42 in /  996.2 hPa West 1.0 mph /  1.6 km/h 3.0 mph /  4.8 km/h 84 % 0.00 in /  0 mm
06:29 43.8 °F /  6.6 °C 39.3 °F /  4.1 °C 29.41 in /  995.8 hPa Calm     84 % 0.00 in /  0 mm
06:34 43.8 °F /  6.6 °C 39.6 °F /  4.2 °C 29.40 in /  995.5 hPa Calm     85 % 0.00 in /  0 mm
06:39 43.7 °F /  6.5 °C 39.5 °F /  4.2 °C 29.40 in /  995.5 hPa Calm     85 % 0.00 in /  0 mm
06:44 43.6 °F /  6.4 °C 39.7 °F /  4.3 °C 29.41 in /  995.8 hPa Calm   1.0 mph /  1.6 km/h 86 % 0.00 in /  0 mm
06:49 43.6 °F /  6.4 °C 39.7 °F /  4.3 °C 29.40 in /  995.5 hPa Calm   1.0 mph /  1.6 km/h 86 % 0.00 in /  0 mm
06:54 43.5 °F /  6.4 °C 39.6 °F /  4.2 °C 29.40 in /  995.5 hPa Calm   1.0 mph /  1.6 km/h 86 % 0.00 in /  0 mm
06:59 43.4 °F /  6.3 °C 39.5 °F /  4.2 °C 29.40 in /  995.5 hPa Calm     86 % 0.00 in /  0 mm
07:04 43.3 °F /  6.3 °C 39.4 °F /  4.1 °C 29.41 in /  995.8 hPa Calm     86 % 0.00 in /  0 mm
07:09 43.3 °F /  6.3 °C 39.4 °F /  4.1 °C 29.41 in /  995.8 hPa Calm     86 % 0.00 in /  0 mm
07:14 43.3 °F /  6.3 °C 39.7 °F /  4.3 °C 29.40 in /  995.5 hPa Calm     87 % 0.00 in /  0 mm
07:19 43.2 °F /  6.2 °C 39.6 °F /  4.2 °C 29.41 in /  995.8 hPa Calm     87 % 0.00 in /  0 mm
07:24 43.2 °F /  6.2 °C 39.6 °F /  4.2 °C 29.40 in /  995.5 hPa Calm     87 % 0.00 in /  0 mm
07:29 43.1 °F /  6.2 °C 39.5 °F /  4.2 °C 29.40 in /  995.5 hPa Calm     87 % 0.00 in /  0 mm
07:34 43.0 °F /  6.1 °C 39.4 °F /  4.1 °C 29.40 in /  995.5 hPa Calm     87 % 0.00 in /  0 mm
07:44 42.9 °F /  6.1 °C 39.3 °F /  4.1 °C 29.39 in /  995.1 hPa Calm     87 % 0.00 in /  0 mm
07:49 42.8 °F /  6 °C 39.2 °F /  4 °C 29.40 in /  995.5 hPa Calm     87 % 0.00 in /  0 mm
07:54 42.7 °F /  5.9 °C 39.1 °F /  3.9 °C 29.40 in /  995.5 hPa Calm     87 % 0.00 in /  0 mm
07:59 42.7 °F /  5.9 °C 39.4 °F /  4.1 °C 29.41 in /  995.8 hPa Calm     88 % 0.00 in /  0 mm
08:05 42.7 °F /  5.9 °C 39.4 °F /  4.1 °C 29.41 in /  995.8 hPa Calm     88 % 0.00 in /  0 mm
08:10 42.7 °F /  5.9 °C 39.4 °F /  4.1 °C 29.41 in /  995.8 hPa Calm     88 % 0.00 in /  0 mm
08:15 42.7 °F /  5.9 °C 39.4 °F /  4.1 °C 29.40 in /  995.5 hPa Calm     88 % 0.00 in /  0 mm
08:20 42.7 °F /  5.9 °C 39.4 °F /  4.1 °C 29.40 in /  995.5 hPa SW 0.6 mph /  1 km/h 1.0 mph /  1.6 km/h 88 % 0.00 in /  0 mm
08:25 42.7 °F /  5.9 °C 39.7 °F /  4.3 °C 29.40 in /  995.5 hPa Calm     89 % 0.00 in /  0 mm
08:30 42.8 °F /  6 °C 39.8 °F /  4.3 °C 29.40 in /  995.5 hPa Calm     89 % 0.00 in /  0 mm
08:35 42.8 °F /  6 °C 39.8 °F /  4.3 °C 29.39 in /  995.1 hPa Calm     89 % 0.00 in /  0 mm
08:40 42.9 °F /  6.1 °C 39.9 °F /  4.4 °C 29.39 in /  995.1 hPa Calm     89 % 0.00 in /  0 mm
08:45 43.0 °F /  6.1 °C 40.3 °F /  4.6 °C 29.40 in /  995.5 hPa Calm     90 % 0.00 in /  0 mm
08:50 43.1 °F /  6.2 °C 40.4 °F /  4.7 °C 29.40 in /  995.5 hPa SW 1.6 mph /  2.6 km/h 3.5 mph /  5.6 km/h 90 % 0.00 in /  0 mm
08:55 43.2 °F /  6.2 °C 40.5 °F /  4.7 °C 29.40 in /  995.5 hPa Calm   1.2 mph /  1.9 km/h 90 % 0.00 in /  0 mm
09:00 43.3 °F /  6.3 °C 40.6 °F /  4.8 °C 29.41 in /  995.8 hPa SW 1.0 mph /  1.6 km/h 2.3 mph /  3.7 km/h 90 % 0.00 in /  0 mm
09:05 43.4 °F /  6.3 °C 40.7 °F /  4.8 °C 29.41 in /  995.8 hPa SW 1.0 mph /  1.6 km/h 2.0 mph /  3.2 km/h 90 % 0.00 in /  0 mm
09:10 43.6 °F /  6.4 °C 40.9 °F /  4.9 °C 29.41 in /  995.8 hPa SSW 1.7 mph /  2.7 km/h 3.0 mph /  4.8 km/h 90 % 0.00 in /  0 mm
09:15 43.8 °F /  6.6 °C 41.1 °F /  5.1 °C 29.40 in /  995.5 hPa SW 1.9 mph /  3.1 km/h 3.5 mph /  5.6 km/h 90 % 0.00 in /  0 mm
09:20 44.0 °F /  6.7 °C 41.3 °F /  5.2 °C 29.41 in /  995.8 hPa SSW 0.9 mph /  1.4 km/h 1.2 mph /  1.9 km/h 90 % 0.00 in /  0 mm
09:25 44.1 °F /  6.7 °C 41.4 °F /  5.2 °C 29.40 in /  995.5 hPa SSW 0.4 mph /  0.6 km/h 2.3 mph /  3.7 km/h 90 % 0.00 in /  0 mm
09:30 44.3 °F /  6.8 °C 41.6 °F /  5.3 °C 29.40 in /  995.5 hPa Calm   1.2 mph /  1.9 km/h 90 % 0.00 in /  0 mm
09:36 44.5 °F /  6.9 °C 42.0 °F /  5.6 °C 29.41 in /  995.8 hPa SSW 1.6 mph /  2.6 km/h 2.3 mph /  3.7 km/h 91 % 0.00 in /  0 mm
09:41 44.7 °F /  7.1 °C 42.2 °F /  5.7 °C 29.40 in /  995.5 hPa WSW 1.2 mph /  1.9 km/h 3.0 mph /  4.8 km/h 91 % 0.00 in /  0 mm
09:46 44.8 °F /  7.1 °C 42.3 °F /  5.7 °C 29.40 in /  995.5 hPa WSW 0.1 mph /  0.2 km/h 1.2 mph /  1.9 km/h 91 % 0.00 in /  0 mm
09:51 45.0 °F /  7.2 °C 42.5 °F /  5.8 °C 29.40 in /  995.5 hPa WSW 0.1 mph /  0.2 km/h 2.3 mph /  3.7 km/h 91 % 0.00 in /  0 mm
09:56 45.2 °F /  7.3 °C 42.7 °F /  5.9 °C 29.40 in /  995.5 hPa SW 0.7 mph /  1.1 km/h 2.3 mph /  3.7 km/h 91 % 0.00 in /  0 mm
10:01 45.4 °F /  7.4 °C 42.9 °F /  6.1 °C 29.40 in /  995.5 hPa SW 0.2 mph /  0.3 km/h 1.2 mph /  1.9 km/h 91 % 0.00 in /  0 mm
10:06 45.5 °F /  7.5 °C 43.0 °F /  6.1 °C 29.40 in /  995.5 hPa SW 0.7 mph /  1.1 km/h 1.2 mph /  1.9 km/h 91 % 0.00 in /  0 mm
10:11 45.6 °F /  7.6 °C 43.1 °F /  6.2 °C 29.40 in /  995.5 hPa Calm   1.2 mph /  1.9 km/h 91 % 0.00 in /  0 mm
10:16 45.7 °F /  7.6 °C 43.2 °F /  6.2 °C 29.41 in /  995.8 hPa SW 0.2 mph /  0.3 km/h 1.2 mph /  1.9 km/h 91 % 0.00 in /  0 mm
10:21 45.8 °F /  7.7 °C 43.3 °F /  6.3 °C 29.39 in /  995.1 hPa SSW 1.5 mph /  2.4 km/h 3.0 mph /  4.8 km/h 91 % 0.00 in /  0 mm
10:26 46.0 °F /  7.8 °C 43.5 °F /  6.4 °C 29.39 in /  995.1 hPa SSW 0.2 mph /  0.3 km/h 1.2 mph /  1.9 km/h 91 % 0.00 in /  0 mm
10:31 46.1 °F /  7.8 °C 43.9 °F /  6.6 °C 29.39 in /  995.1 hPa SSW 0.5 mph /  0.8 km/h 3.5 mph /  5.6 km/h 92 % 0.00 in /  0 mm
10:36 46.1 °F /  7.8 °C 43.9 °F /  6.6 °C 29.39 in /  995.1 hPa SSW 1.7 mph /  2.7 km/h 3.5 mph /  5.6 km/h 92 % 0.00 in /  0 mm
10:41 46.2 °F /  7.9 °C 44.0 °F /  6.7 °C 29.39 in /  995.1 hPa SSW 0.9 mph /  1.4 km/h 3.5 mph /  5.6 km/h 92 % 0.01 in /  0.25 mm
10:46 46.3 °F /  7.9 °C 44.1 °F /  6.7 °C 29.37 in /  994.5 hPa Calm     92 % 0.01 in /  0.25 mm
10:51 46.4 °F /  8 °C 44.2 °F /  6.8 °C 29.37 in /  994.5 hPa Calm   1.2 mph /  1.9 km/h 92 % 0.01 in /  0.25 mm
10:56 46.5 °F /  8.1 °C 44.3 °F /  6.8 °C 29.37 in /  994.5 hPa SSW 1.1 mph /  1.8 km/h 3.5 mph /  5.6 km/h 92 % 0.01 in /  0.25 mm
11:01 46.7 °F /  8.2 °C 44.8 °F /  7.1 °C 29.36 in /  994.1 hPa South 2.1 mph /  3.4 km/h 3.5 mph /  5.6 km/h 93 % 0.01 in /  0.25 mm
11:07 46.8 °F /  8.2 °C 44.9 °F /  7.2 °C 29.36 in /  994.1 hPa SSW 2.0 mph /  3.2 km/h 3.5 mph /  5.6 km/h 93 % 0.01 in /  0.25 mm
11:12 46.8 °F /  8.2 °C 44.9 °F /  7.2 °C 29.35 in /  993.8 hPa SSE 0.9 mph /  1.4 km/h 3.5 mph /  5.6 km/h 93 % 0.01 in /  0.25 mm
11:17 46.8 °F /  8.2 °C 44.9 °F /  7.2 °C 29.34 in /  993.5 hPa South 2.9 mph /  4.7 km/h 3.5 mph /  5.6 km/h 93 % 0.01 in /  0.25 mm
11:22 46.8 °F /  8.2 °C 44.9 °F /  7.2 °C 29.34 in /  993.5 hPa South 0.5 mph /  0.8 km/h 3.5 mph /  5.6 km/h 93 % 0.01 in /  0.25 mm
11:27 46.7 °F /  8.2 °C 44.8 °F /  7.1 °C 29.34 in /  993.5 hPa South 1.6 mph /  2.6 km/h 3.5 mph /  5.6 km/h 93 % 0.01 in /  0.25 mm
11:32 46.7 °F /  8.2 °C 44.8 °F /  7.1 °C 29.33 in /  993.1 hPa South 1.6 mph /  2.6 km/h 3.5 mph /  5.6 km/h 93 % 0.01 in /  0.25 mm
11:37 46.6 °F /  8.1 °C 44.7 °F /  7.1 °C 29.33 in /  993.1 hPa South 2.5 mph /  4 km/h 4.6 mph /  7.4 km/h 93 % 0.00 in /  0 mm
11:42 46.5 °F /  8.1 °C 44.6 °F /  7 °C 29.34 in /  993.5 hPa SSW 1.2 mph /  1.9 km/h 3.5 mph /  5.6 km/h 93 % 0.00 in /  0 mm
11:47 46.5 °F /  8.1 °C 44.6 °F /  7 °C 29.33 in /  993.1 hPa South 0.6 mph /  1 km/h 2.3 mph /  3.7 km/h 93 % 0.00 in /  0 mm
11:52 46.5 °F /  8.1 °C 44.6 °F /  7 °C 29.33 in /  993.1 hPa SSE 0.6 mph /  1 km/h 3.5 mph /  5.6 km/h 93 % 0.00 in /  0 mm
11:57 46.5 °F /  8.1 °C 44.6 °F /  7 °C 29.33 in /  993.1 hPa SSW 2.0 mph /  3.2 km/h 4.6 mph /  7.4 km/h 93 % 0.00 in /  0 mm
12:02 46.5 °F /  8.1 °C 44.6 °F /  7 °C 29.33 in /  993.1 hPa SSW 3.5 mph /  5.6 km/h 8.1 mph /  13 km/h 93 % 0.00 in /  0 mm
12:07 46.6 °F /  8.1 °C 44.7 °F /  7.1 °C 29.33 in /  993.1 hPa South 5.3 mph /  8.5 km/h 6.0 mph /  9.7 km/h 93 % 0.00 in /  0 mm
12:12 46.6 °F /  8.1 °C 44.7 °F /  7.1 °C 29.32 in /  992.8 hPa South 2.1 mph /  3.4 km/h 4.0 mph /  6.4 km/h 93 % 0.00 in /  0 mm
12:17 46.7 °F /  8.2 °C 44.8 °F /  7.1 °C 29.32 in /  992.8 hPa South 0.5 mph /  0.8 km/h 2.0 mph /  3.2 km/h 93 % 0.00 in /  0 mm
12:21 46.7 °F /  8.2 °C 44.8 °F /  7.1 °C 29.32 in /  992.8 hPa SW 2.0 mph /  3.2 km/h 3.5 mph /  5.6 km/h 93 % 0.00 in /  0 mm
12:26 46.8 °F /  8.2 °C 44.9 °F /  7.2 °C 29.31 in /  992.4 hPa SW 0.6 mph /  1 km/h 3.5 mph /  5.6 km/h 93 % 0.00 in /  0 mm
12:31 47.0 °F /  8.3 °C 45.1 °F /  7.3 °C 29.31 in /  992.4 hPa SSW 3.0 mph /  4.8 km/h 4.6 mph /  7.4 km/h 93 % 0.00 in /  0 mm
12:36 47.2 °F /  8.4 °C 45.3 °F /  7.4 °C 29.31 in /  992.4 hPa South 3.9 mph /  6.3 km/h 6.9 mph /  11.1 km/h 93 % 0.00 in /  0 mm
12:41 47.3 °F /  8.5 °C 45.1 °F /  7.3 °C 29.30 in /  992.1 hPa SSW 4.4 mph /  7.1 km/h 6.9 mph /  11.1 km/h 92 % 0.00 in /  0 mm
12:46 47.5 °F /  8.6 °C 45.3 °F /  7.4 °C 29.30 in /  992.1 hPa SW 2.8 mph /  4.5 km/h 5.0 mph /  8 km/h 92 % 0.00 in /  0 mm
12:51 47.8 °F /  8.8 °C 45.3 °F /  7.4 °C 29.30 in /  992.1 hPa South 4.2 mph /  6.8 km/h 7.0 mph /  11.3 km/h 91 % 0.00 in /  0 mm
12:56 48.0 °F /  8.9 °C 45.2 °F /  7.3 °C 29.30 in /  992.1 hPa SSW 3.6 mph /  5.8 km/h 8.1 mph /  13 km/h 90 % 0.00 in /  0 mm
13:01 48.1 °F /  8.9 °C 45.0 °F /  7.2 °C 29.30 in /  992.1 hPa South 3.0 mph /  4.8 km/h 9.2 mph /  14.8 km/h 89 % 0.00 in /  0 mm
13:06 48.2 °F /  9 °C 45.1 °F /  7.3 °C 29.29 in /  991.8 hPa South 1.9 mph /  3.1 km/h 6.0 mph /  9.7 km/h 89 % 0.00 in /  0 mm
13:12 48.2 °F /  9 °C 45.1 °F /  7.3 °C 29.30 in /  992.1 hPa South 3.7 mph /  6 km/h 5.8 mph /  9.3 km/h 89 % 0.00 in /  0 mm
13:17 48.3 °F /  9.1 °C 45.2 °F /  7.3 °C 29.29 in /  991.8 hPa SSW 5.3 mph /  8.5 km/h 11.5 mph /  18.5 km/h 89 % 0.00 in /  0 mm
13:22 48.5 °F /  9.2 °C 45.4 °F /  7.4 °C 29.29 in /  991.8 hPa SW 3.6 mph /  5.8 km/h 6.9 mph /  11.1 km/h 89 % 0.00 in /  0 mm
13:27 48.9 °F /  9.4 °C 45.8 °F /  7.7 °C 29.29 in /  991.8 hPa SSW 3.1 mph /  5 km/h 5.8 mph /  9.3 km/h 89 % 0.00 in /  0 mm
13:32 49.4 °F /  9.7 °C 46.0 °F /  7.8 °C 29.28 in /  991.4 hPa SSW 5.2 mph /  8.4 km/h 9.2 mph /  14.8 km/h 88 % 0.00 in /  0 mm
13:37 49.9 °F /  9.9 °C 46.2 °F /  7.9 °C 29.28 in /  991.4 hPa SSW 7.9 mph /  12.7 km/h 13.8 mph /  22.2 km/h 87 % 0.00 in /  0 mm
13:42 50.2 °F /  10.1 °C 46.2 °F /  7.9 °C 29.27 in /  991.1 hPa SSW 3.4 mph /  5.5 km/h 5.8 mph /  9.3 km/h 86 % 0.00 in /  0 mm
13:47 50.2 °F /  10.1 °C 45.6 °F /  7.6 °C 29.28 in /  991.4 hPa SSW 4.9 mph /  7.9 km/h 7.0 mph /  11.3 km/h 84 % 0.00 in /  0 mm
13:52 50.2 °F /  10.1 °C 45.6 °F /  7.6 °C 29.28 in /  991.4 hPa South 6.9 mph /  11.1 km/h 10.4 mph /  16.7 km/h 84 % 0.00 in /  0 mm
13:54 50.2 °F /  10.1 °C 45.6 °F /  7.6 °C 29.28 in /  991.4 hPa SW 5.4 mph /  8.7 km/h 6.9 mph /  11.1 km/h 84 % 0.00 in /  0 mm
14:00 50.2 °F /  10.1 °C 45.2 °F /  7.3 °C 29.28 in /  991.4 hPa SW 7.0 mph /  11.3 km/h 12.7 mph /  20.4 km/h 83 % 0.00 in /  0 mm
14:05 50.1 °F /  10.1 °C 45.1 °F /  7.3 °C 29.28 in /  991.4 hPa SSW 4.1 mph /  6.6 km/h 7.0 mph /  11.3 km/h 83 % 0.00 in /  0 mm
14:10 50.2 °F /  10.1 °C 45.6 °F /  7.6 °C 29.28 in /  991.4 hPa SSW 7.3 mph /  11.7 km/h 8.1 mph /  13 km/h 84 % 0.00 in /  0 mm
14:15 50.4 °F /  10.2 °C 45.7 °F /  7.6 °C 29.28 in /  991.4 hPa WSW 4.5 mph /  7.2 km/h 9.2 mph /  14.8 km/h 84 % 0.00 in /  0 mm
14:20 50.8 °F /  10.4 °C 45.8 °F /  7.7 °C 29.28 in /  991.4 hPa WSW 3.6 mph /  5.8 km/h 6.9 mph /  11.1 km/h 83 % 0.00 in /  0 mm
14:25 51.2 °F /  10.7 °C 46.2 °F /  7.9 °C 29.28 in /  991.4 hPa WSW 4.7 mph /  7.6 km/h 11.5 mph /  18.5 km/h 83 % 0.00 in /  0 mm
14:30 51.5 °F /  10.8 °C 45.9 °F /  7.7 °C 29.28 in /  991.4 hPa SW 3.6 mph /  5.8 km/h 8.0 mph /  12.9 km/h 81 % 0.00 in /  0 mm
14:35 51.9 °F /  11.1 °C 45.6 °F /  7.6 °C 29.29 in /  991.8 hPa SW 4.2 mph /  6.8 km/h 8.1 mph /  13 km/h 79 % 0.00 in /  0 mm
14:40 52.1 °F /  11.2 °C 44.8 °F /  7.1 °C 29.29 in /  991.8 hPa WSW 7.7 mph /  12.4 km/h 12.7 mph /  20.4 km/h 76 % 0.00 in /  0 mm
14:45 52.1 °F /  11.2 °C 43.3 °F /  6.3 °C 29.30 in /  992.1 hPa WSW 4.0 mph /  6.4 km/h 11.5 mph /  18.5 km/h 72 % 0.00 in /  0 mm
14:50 51.9 °F /  11.1 °C 40.5 °F /  4.7 °C 29.30 in /  992.1 hPa WSW 9.0 mph /  14.5 km/h 12.0 mph /  19.3 km/h 65 % 0.00 in /  0 mm
14:55 51.9 °F /  11.1 °C 38.0 °F /  3.3 °C 29.30 in /  992.1 hPa WSW 7.9 mph /  12.7 km/h 18.4 mph /  29.6 km/h 59 % 0.00 in /  0 mm
15:00 51.8 °F /  11 °C 37.0 °F /  2.8 °C 29.30 in /  992.1 hPa SW 9.1 mph /  14.6 km/h 19.6 mph /  31.5 km/h 57 % 0.00 in /  0 mm
15:05 51.7 °F /  10.9 °C 36.5 °F /  2.5 °C 29.31 in /  992.4 hPa SW 5.6 mph /  9 km/h 11.5 mph /  18.5 km/h 56 % 0.00 in /  0 mm
15:10 51.5 °F /  10.8 °C 36.3 °F /  2.4 °C 29.32 in /  992.8 hPa SW 11.1 mph /  17.9 km/h 16.1 mph /  25.9 km/h 56 % 0.00 in /  0 mm
15:15 51.2 °F /  10.7 °C 36.0 °F /  2.2 °C 29.31 in /  992.4 hPa WNW 8.2 mph /  13.2 km/h 17.3 mph /  27.8 km/h 56 % 0.00 in /  0 mm
15:20 50.9 °F /  10.5 °C 35.3 °F /  1.8 °C 29.31 in /  992.4 hPa West 7.3 mph /  11.7 km/h 18.4 mph /  29.6 km/h 55 % 0.00 in /  0 mm
15:26 50.7 °F /  10.4 °C 35.6 °F /  2 °C 29.31 in /  992.4 hPa West 11.6 mph /  18.7 km/h 14.0 mph /  22.5 km/h 56 % 0.00 in /  0 mm
15:31 50.6 °F /  10.3 °C 35.0 °F /  1.7 °C 29.32 in /  992.8 hPa WNW 8.3 mph /  13.4 km/h 14.0 mph /  22.5 km/h 55 % 0.00 in /  0 mm
15:32 50.6 °F /  10.3 °C 34.6 °F /  1.4 °C 29.32 in /  992.8 hPa WNW 4.7 mph /  7.6 km/h 11.5 mph /  18.5 km/h 54 % 0.00 in /  0 mm
15:37 50.5 °F /  10.3 °C 35.4 °F /  1.9 °C 29.32 in /  992.8 hPa WNW 6.9 mph /  11.1 km/h 19.6 mph /  31.5 km/h 56 % 0.00 in /  0 mm
15:38 50.5 °F /  10.3 °C 35.4 °F /  1.9 °C 29.32 in /  992.8 hPa WSW 7.5 mph /  12.1 km/h 10.4 mph /  16.7 km/h 56 % 0.00 in /  0 mm
15:43 50.0 °F /  10 °C 34.9 °F /  1.6 °C 29.32 in /  992.8 hPa WSW 10.4 mph /  16.7 km/h 21.9 mph /  35.2 km/h 56 % 0.00 in /  0 mm
15:48 49.5 °F /  9.7 °C 34.4 °F /  1.3 °C 29.33 in /  993.1 hPa WSW 7.3 mph /  11.7 km/h 20.7 mph /  33.3 km/h 56 % 0.00 in /  0 mm
15:53 49.1 °F /  9.5 °C 34.5 °F /  1.4 °C 29.34 in /  993.5 hPa West 8.5 mph /  13.7 km/h 16.1 mph /  25.9 km/h 57 % 0.00 in /  0 mm
15:58 48.7 °F /  9.3 °C 33.2 °F /  0.7 °C 29.34 in /  993.5 hPa West 16.6 mph /  26.7 km/h 19.6 mph /  31.5 km/h 55 % 0.00 in /  0 mm
16:04 48.5 °F /  9.2 °C 32.6 °F /  0.3 °C 29.34 in /  993.5 hPa WSW 10.8 mph /  17.4 km/h 13.8 mph /  22.2 km/h 54 % 0.00 in /  0 mm
16:09 48.3 °F /  9.1 °C 31.9 °F /  -0.1 °C 29.34 in /  993.5 hPa West 12.1 mph /  19.5 km/h 19.0 mph /  30.6 km/h 53 % 0.00 in /  0 mm
16:14 48.1 °F /  8.9 °C 31.8 °F /  -0.1 °C 29.35 in /  993.8 hPa WSW 11.6 mph /  18.7 km/h 18.0 mph /  29 km/h 53 % 0.00 in /  0 mm
16:19 47.9 °F /  8.8 °C 31.6 °F /  -0.2 °C 29.35 in /  993.8 hPa WSW 9.9 mph /  15.9 km/h 13.8 mph /  22.2 km/h 53 % 0.00 in /  0 mm
16:24 47.8 °F /  8.8 °C 31.5 °F /  -0.3 °C 29.35 in /  993.8 hPa West 10.3 mph /  16.6 km/h 18.4 mph /  29.6 km/h 53 % 0.00 in /  0 mm
16:29 47.7 °F /  8.7 °C 31.9 °F /  -0.1 °C 29.35 in /  993.8 hPa SW 8.5 mph /  13.7 km/h 17.0 mph /  27.4 km/h 54 % 0.00 in /  0 mm
16:35 47.6 °F /  8.7 °C 31.8 °F /  -0.1 °C 29.35 in /  993.8 hPa WSW 7.5 mph /  12.1 km/h 16.1 mph /  25.9 km/h 54 % 0.00 in /  0 mm
16:40 47.5 °F /  8.6 °C 31.7 °F /  -0.2 °C 29.35 in /  993.8 hPa WNW 13.3 mph /  21.4 km/h 23.0 mph /  37 km/h 54 % 0.00 in /  0 mm
16:45 47.3 °F /  8.5 °C 31.5 °F /  -0.3 °C 29.36 in /  994.1 hPa WSW 7.1 mph /  11.4 km/h 17.3 mph /  27.8 km/h 54 % 0.00 in /  0 mm
16:50 47.1 °F /  8.4 °C 31.3 °F /  -0.4 °C 29.35 in /  993.8 hPa West 10.9 mph /  17.5 km/h 19.6 mph /  31.5 km/h 54 % 0.00 in /  0 mm
16:55 46.9 °F /  8.3 °C 30.6 °F /  -0.8 °C 29.36 in /  994.1 hPa WSW 6.3 mph /  10.1 km/h 19.6 mph /  31.5 km/h 53 % 0.00 in /  0 mm
17:00 46.7 °F /  8.2 °C 31.4 °F /  -0.3 °C 29.36 in /  994.1 hPa SW 8.9 mph /  14.3 km/h 24.2 mph /  38.9 km/h 55 % 0.00 in /  0 mm
17:05 46.5 °F /  8.1 °C 31.6 °F /  -0.2 °C 29.36 in /  994.1 hPa WSW 8.8 mph /  14.2 km/h 19.6 mph /  31.5 km/h 56 % 0.00 in /  0 mm
17:10 46.3 °F /  7.9 °C 32.7 °F /  0.4 °C 29.36 in /  994.1 hPa WNW 2.9 mph /  4.7 km/h 9.2 mph /  14.8 km/h 59 % 0.00 in /  0 mm
17:15 46.0 °F /  7.8 °C 32.9 °F /  0.5 °C 29.37 in /  994.5 hPa SW 8.9 mph /  14.3 km/h 15.0 mph /  24.1 km/h 60 % 0.00 in /  0 mm
17:25 45.4 °F /  7.4 °C 32.7 °F /  0.4 °C 29.38 in /  994.8 hPa WNW 11.6 mph /  18.7 km/h 16.1 mph /  25.9 km/h 61 % 0.00 in /  0 mm
17:30 45.2 °F /  7.3 °C 32.5 °F /  0.3 °C 29.38 in /  994.8 hPa West 7.8 mph /  12.6 km/h 16.0 mph /  25.7 km/h 61 % 0.00 in /  0 mm
17:35 45.1 °F /  7.3 °C 32.0 °F /  0 °C 29.38 in /  994.8 hPa West 13.5 mph /  21.7 km/h 19.6 mph /  31.5 km/h 60 % 0.00 in /  0 mm
17:46 44.9 °F /  7.2 °C 31.0 °F /  -0.6 °C 29.39 in /  995.1 hPa WNW 10.7 mph /  17.2 km/h 17.3 mph /  27.8 km/h 58 % 0.00 in /  0 mm
17:51 44.8 °F /  7.1 °C 31.3 °F /  -0.4 °C 29.39 in /  995.1 hPa West 6.8 mph /  10.9 km/h 17.3 mph /  27.8 km/h 59 % 0.00 in /  0 mm
17:56 44.7 °F /  7.1 °C 30.8 °F /  -0.7 °C 29.39 in /  995.1 hPa WSW 9.9 mph /  15.9 km/h 24.2 mph /  38.9 km/h 58 % 0.00 in /  0 mm
18:01 44.7 °F /  7.1 °C 30.8 °F /  -0.7 °C 29.39 in /  995.1 hPa WSW 5.6 mph /  9 km/h 12.7 mph /  20.4 km/h 58 % 0.00 in /  0 mm
18:06 44.7 °F /  7.1 °C 30.8 °F /  -0.7 °C 29.39 in /  995.1 hPa West 10.0 mph /  16.1 km/h 18.4 mph /  29.6 km/h 58 % 0.00 in /  0 mm
18:11 44.6 °F /  7 °C 30.7 °F /  -0.7 °C 29.40 in /  995.5 hPa WSW 8.5 mph /  13.7 km/h 13.8 mph /  22.2 km/h 58 % 0.00 in /  0 mm
18:16 44.5 °F /  6.9 °C 31.1 °F /  -0.5 °C 29.40 in /  995.5 hPa West 3.6 mph /  5.8 km/h 9.2 mph /  14.8 km/h 59 % 0.00 in /  0 mm
18:21 44.4 °F /  6.9 °C 31.4 °F /  -0.3 °C 29.40 in /  995.5 hPa NW 8.6 mph /  13.8 km/h 13.8 mph /  22.2 km/h 60 % 0.00 in /  0 mm
18:26 44.3 °F /  6.8 °C 30.9 °F /  -0.6 °C 29.40 in /  995.5 hPa SW 9.9 mph /  15.9 km/h 19.0 mph /  30.6 km/h 59 % 0.00 in /  0 mm
18:31 44.2 °F /  6.8 °C 31.2 °F /  -0.4 °C 29.40 in /  995.5 hPa WNW 11.0 mph /  17.7 km/h 19.6 mph /  31.5 km/h 60 % 0.00 in /  0 mm
18:36 44.2 °F /  6.8 °C 30.8 °F /  -0.7 °C 29.41 in /  995.8 hPa WNW 10.5 mph /  16.9 km/h 17.0 mph /  27.4 km/h 59 % 0.00 in /  0 mm
18:41 44.2 °F /  6.8 °C 31.2 °F /  -0.4 °C 29.41 in /  995.8 hPa WNW 10.8 mph /  17.4 km/h 16.1 mph /  25.9 km/h 60 % 0.00 in /  0 mm
18:51 44.2 °F /  6.8 °C 31.2 °F /  -0.4 °C 29.41 in /  995.8 hPa West 8.5 mph /  13.7 km/h 11.5 mph /  18.5 km/h 60 % 0.00 in /  0 mm
18:56 44.2 °F /  6.8 °C 31.2 °F /  -0.4 °C 29.41 in /  995.8 hPa WSW 6.7 mph /  10.8 km/h 15.0 mph /  24.1 km/h 60 % 0.00 in /  0 mm
18:57 44.2 °F /  6.8 °C 31.2 °F /  -0.4 °C 29.41 in /  995.8 hPa WNW 13.0 mph /  20.9 km/h 19.6 mph /  31.5 km/h 60 % 0.00 in /  0 mm
19:01 44.1 °F /  6.7 °C 31.1 °F /  -0.5 °C 29.41 in /  995.8 hPa WNW 8.8 mph /  14.2 km/h 15.0 mph /  24.1 km/h 60 % 0.00 in /  0 mm
19:04 44.1 °F /  6.7 °C 31.5 °F /  -0.3 °C 29.41 in /  995.8 hPa WSW 7.0 mph /  11.3 km/h 21.0 mph /  33.8 km/h 61 % 0.00 in /  0 mm
19:05 44.1 °F /  6.7 °C 31.5 °F /  -0.3 °C 29.41 in /  995.8 hPa West 6.3 mph /  10.1 km/h 15.0 mph /  24.1 km/h 61 % 0.00 in /  0 mm
19:10 44.0 °F /  6.7 °C 31.8 °F /  -0.1 °C 29.41 in /  995.8 hPa West 5.7 mph /  9.2 km/h 8.0 mph /  12.9 km/h 62 % 0.00 in /  0 mm
19:16 44.0 °F /  6.7 °C 31.8 °F /  -0.1 °C 29.41 in /  995.8 hPa SW 7.0 mph /  11.3 km/h 12.7 mph /  20.4 km/h 62 % 0.00 in /  0 mm
19:21 44.0 °F /  6.7 °C 31.8 °F /  -0.1 °C 29.41 in /  995.8 hPa WSW 11.6 mph /  18.7 km/h 17.3 mph /  27.8 km/h 62 % 0.00 in /  0 mm
19:26 44.0 °F /  6.7 °C 31.8 °F /  -0.1 °C 29.42 in /  996.2 hPa WSW 8.7 mph /  14 km/h 12.7 mph /  20.4 km/h 62 % 0.00 in /  0 mm
19:31 44.0 °F /  6.7 °C 32.2 °F /  0.1 °C 29.42 in /  996.2 hPa WSW 3.5 mph /  5.6 km/h 10.4 mph /  16.7 km/h 63 % 0.00 in /  0 mm
19:36 43.9 °F /  6.6 °C 32.5 °F /  0.3 °C 29.42 in /  996.2 hPa West 10.4 mph /  16.7 km/h 16.1 mph /  25.9 km/h 64 % 0.00 in /  0 mm
19:41 43.9 °F /  6.6 °C 32.5 °F /  0.3 °C 29.41 in /  995.8 hPa WSW 7.0 mph /  11.3 km/h 17.0 mph /  27.4 km/h 64 % 0.00 in /  0 mm
19:46 43.8 °F /  6.6 °C 32.8 °F /  0.4 °C 29.42 in /  996.2 hPa SW 9.1 mph /  14.6 km/h 13.8 mph /  22.2 km/h 65 % 0.00 in /  0 mm
19:51 43.7 °F /  6.5 °C 32.7 °F /  0.4 °C 29.42 in /  996.2 hPa SSW 5.1 mph /  8.2 km/h 16.1 mph /  25.9 km/h 65 % 0.00 in /  0 mm
19:56 43.7 °F /  6.5 °C 32.7 °F /  0.4 °C 29.42 in /  996.2 hPa WNW 3.7 mph /  6 km/h 7.0 mph /  11.3 km/h 65 % 0.00 in /  0 mm
20:01 43.6 °F /  6.4 °C 32.6 °F /  0.3 °C 29.42 in /  996.2 hPa WSW 11.1 mph /  17.9 km/h 15.0 mph /  24.1 km/h 65 % 0.00 in /  0 mm
20:06 43.7 °F /  6.5 °C 32.7 °F /  0.4 °C 29.42 in /  996.2 hPa West 9.9 mph /  15.9 km/h 16.1 mph /  25.9 km/h 65 % 0.00 in /  0 mm
20:11 43.6 °F /  6.4 °C 32.6 °F /  0.3 °C 29.41 in /  995.8 hPa SSW 7.0 mph /  11.3 km/h 11.5 mph /  18.5 km/h 65 % 0.00 in /  0 mm
20:16 43.6 °F /  6.4 °C 32.6 °F /  0.3 °C 29.42 in /  996.2 hPa SW 8.7 mph /  14 km/h 18.4 mph /  29.6 km/h 65 % 0.00 in /  0 mm
20:22 43.6 °F /  6.4 °C 32.6 °F /  0.3 °C 29.42 in /  996.2 hPa WSW 5.3 mph /  8.5 km/h 8.1 mph /  13 km/h 65 % 0.00 in /  0 mm
20:27 43.6 °F /  6.4 °C 32.6 °F /  0.3 °C 29.42 in /  996.2 hPa West 5.4 mph /  8.7 km/h 9.2 mph /  14.8 km/h 65 % 0.00 in /  0 mm
20:32 43.5 °F /  6.4 °C 32.5 °F /  0.3 °C 29.43 in /  996.5 hPa WSW 6.4 mph /  10.3 km/h 15.0 mph /  24.1 km/h 65 % 0.00 in /  0 mm
20:37 43.5 °F /  6.4 °C 32.5 °F /  0.3 °C 29.43 in /  996.5 hPa SW 7.4 mph /  11.9 km/h 19.6 mph /  31.5 km/h 65 % 0.00 in /  0 mm
20:42 43.5 °F /  6.4 °C 32.5 °F /  0.3 °C 29.43 in /  996.5 hPa WSW 8.6 mph /  13.8 km/h 16.1 mph /  25.9 km/h 65 % 0.00 in /  0 mm
20:47 43.5 °F /  6.4 °C 32.5 °F /  0.3 °C 29.43 in /  996.5 hPa West 7.1 mph /  11.4 km/h 11.5 mph /  18.5 km/h 65 % 0.00 in /  0 mm
20:52 43.5 °F /  6.4 °C 32.5 °F /  0.3 °C 29.43 in /  996.5 hPa WNW 6.7 mph /  10.8 km/h 15.0 mph /  24.1 km/h 65 % 0.00 in /  0 mm
20:57 43.4 °F /  6.3 °C 32.4 °F /  0.2 °C 29.44 in /  996.8 hPa West 10.0 mph /  16.1 km/h 15.0 mph /  24.1 km/h 65 % 0.00 in /  0 mm
21:02 43.4 °F /  6.3 °C 32.4 °F /  0.2 °C 29.44 in /  996.8 hPa West 6.5 mph /  10.5 km/h 12.0 mph /  19.3 km/h 65 % 0.00 in /  0 mm
21:07 43.4 °F /  6.3 °C 32.4 °F /  0.2 °C 29.44 in /  996.8 hPa SW 4.8 mph /  7.7 km/h 15.0 mph /  24.1 km/h 65 % 0.00 in /  0 mm
21:12 43.4 °F /  6.3 °C 32.4 °F /  0.2 °C 29.45 in /  997.2 hPa West 3.8 mph /  6.1 km/h 8.1 mph /  13 km/h 65 % 0.00 in /  0 mm
21:17 43.4 °F /  6.3 °C 32.4 °F /  0.2 °C 29.45 in /  997.2 hPa NW 6.6 mph /  10.6 km/h 12.0 mph /  19.3 km/h 65 % 0.00 in /  0 mm
21:22 43.4 °F /  6.3 °C 32.8 °F /  0.4 °C 29.45 in /  997.2 hPa WNW 8.6 mph /  13.8 km/h 13.8 mph /  22.2 km/h 66 % 0.00 in /  0 mm
21:27 43.3 °F /  6.3 °C 32.7 °F /  0.4 °C 29.45 in /  997.2 hPa West 5.7 mph /  9.2 km/h 11.5 mph /  18.5 km/h 66 % 0.00 in /  0 mm
21:32 43.3 °F /  6.3 °C 32.7 °F /  0.4 °C 29.46 in /  997.5 hPa WSW 7.8 mph /  12.6 km/h 13.8 mph /  22.2 km/h 66 % 0.00 in /  0 mm
21:37 43.3 °F /  6.3 °C 32.7 °F /  0.4 °C 29.46 in /  997.5 hPa NW 8.4 mph /  13.5 km/h 11.0 mph /  17.7 km/h 66 % 0.00 in /  0 mm
21:42 43.4 °F /  6.3 °C 32.4 °F /  0.2 °C 29.46 in /  997.5 hPa West 6.8 mph /  10.9 km/h 13.8 mph /  22.2 km/h 65 % 0.00 in /  0 mm
21:47 43.4 °F /  6.3 °C 32.8 °F /  0.4 °C 29.47 in /  997.9 hPa SW 9.1 mph /  14.6 km/h 11.5 mph /  18.5 km/h 66 % 0.00 in /  0 mm
21:52 43.4 °F /  6.3 °C 32.4 °F /  0.2 °C 29.47 in /  997.9 hPa WSW 8.7 mph /  14 km/h 18.0 mph /  29 km/h 65 % 0.00 in /  0 mm
21:58 43.4 °F /  6.3 °C 32.4 °F /  0.2 °C 29.48 in /  998.2 hPa WNW 12.3 mph /  19.8 km/h 15.0 mph /  24.1 km/h 65 % 0.00 in /  0 mm
22:03 43.4 °F /  6.3 °C 32.4 °F /  0.2 °C 29.48 in /  998.2 hPa WSW 8.6 mph /  13.8 km/h 11.5 mph /  18.5 km/h 65 % 0.00 in /  0 mm
22:08 43.3 °F /  6.3 °C 32.3 °F /  0.2 °C 29.48 in /  998.2 hPa WSW 12.0 mph /  19.3 km/h 17.0 mph /  27.4 km/h 65 % 0.00 in /  0 mm
22:14 43.3 °F /  6.3 °C 32.7 °F /  0.4 °C 29.48 in /  998.2 hPa WSW 6.1 mph /  9.8 km/h 12.7 mph /  20.4 km/h 66 % 0.00 in /  0 mm
22:19 43.3 °F /  6.3 °C 32.7 °F /  0.4 °C 29.49 in /  998.5 hPa WNW 4.5 mph /  7.2 km/h 8.0 mph /  12.9 km/h 66 % 0.00 in /  0 mm
22:24 43.1 °F /  6.2 °C 32.9 °F /  0.5 °C 29.49 in /  998.5 hPa SW 7.0 mph /  11.3 km/h 8.1 mph /  13 km/h 67 % 0.00 in /  0 mm
22:25 43.1 °F /  6.2 °C 32.9 °F /  0.5 °C 29.49 in /  998.5 hPa WNW 6.2 mph /  10 km/h 8.1 mph /  13 km/h 67 % 0.00 in /  0 mm
22:30 43.0 °F /  6.1 °C 32.8 °F /  0.4 °C 29.49 in /  998.5 hPa West 7.8 mph /  12.6 km/h 13.8 mph /  22.2 km/h 67 % 0.00 in /  0 mm
22:35 42.9 °F /  6.1 °C 32.7 °F /  0.4 °C 29.49 in /  998.5 hPa West 4.2 mph /  6.8 km/h 9.0 mph /  14.5 km/h 67 % 0.00 in /  0 mm
22:40 42.8 °F /  6 °C 33.0 °F /  0.6 °C 29.50 in /  998.9 hPa WSW 10.5 mph /  16.9 km/h 16.1 mph /  25.9 km/h 68 % 0.00 in /  0 mm
22:45 42.8 °F /  6 °C 33.0 °F /  0.6 °C 29.50 in /  998.9 hPa West 7.1 mph /  11.4 km/h 13.0 mph /  20.9 km/h 68 % 0.00 in /  0 mm
22:50 42.8 °F /  6 °C 32.6 °F /  0.3 °C 29.50 in /  998.9 hPa West 6.8 mph /  10.9 km/h 11.5 mph /  18.5 km/h 67 % 0.00 in /  0 mm
22:55 42.8 °F /  6 °C 32.6 °F /  0.3 °C 29.50 in /  998.9 hPa West 8.7 mph /  14 km/h 11.5 mph /  18.5 km/h 67 % 0.00 in /  0 mm
23:00 42.8 °F /  6 °C 33.0 °F /  0.6 °C 29.50 in /  998.9 hPa WSW 6.2 mph /  10 km/h 12.7 mph /  20.4 km/h 68 % 0.00 in /  0 mm
23:05 42.8 °F /  6 °C 32.6 °F /  0.3 °C 29.50 in /  998.9 hPa WSW 8.1 mph /  13 km/h 13.8 mph /  22.2 km/h 67 % 0.00 in /  0 mm
23:10 42.7 °F /  5.9 °C 32.9 °F /  0.5 °C 29.51 in /  999.2 hPa West 9.2 mph /  14.8 km/h 15.0 mph /  24.1 km/h 68 % 0.00 in /  0 mm
23:15 42.7 °F /  5.9 °C 32.9 °F /  0.5 °C 29.51 in /  999.2 hPa WSW 7.6 mph /  12.2 km/h 11.0 mph /  17.7 km/h 68 % 0.00 in /  0 mm
23:21 42.6 °F /  5.9 °C 32.8 °F /  0.4 °C 29.51 in /  999.2 hPa WNW 6.2 mph /  10 km/h 10.4 mph /  16.7 km/h 68 % 0.00 in /  0 mm
23:26 42.6 °F /  5.9 °C 33.1 °F /  0.6 °C 29.51 in /  999.2 hPa WNW 7.1 mph /  11.4 km/h 12.7 mph /  20.4 km/h 69 % 0.00 in /  0 mm
23:31 42.5 °F /  5.8 °C 32.7 °F /  0.4 °C 29.51 in /  999.2 hPa West 7.3 mph /  11.7 km/h 19.6 mph /  31.5 km/h 68 % 0.00 in /  0 mm
23:36 42.4 °F /  5.8 °C 32.6 °F /  0.3 °C 29.51 in /  999.2 hPa WSW 5.1 mph /  8.2 km/h 15.0 mph /  24.1 km/h 68 % 0.00 in /  0 mm
23:41 42.4 °F /  5.8 °C 32.6 °F /  0.3 °C 29.51 in /  999.2 hPa West 7.2 mph /  11.6 km/h 12.7 mph /  20.4 km/h 68 % 0.00 in /  0 mm
23:46 42.3 °F /  5.7 °C 32.5 °F /  0.3 °C 29.51 in /  999.2 hPa NW 4.5 mph /  7.2 km/h 10.4 mph /  16.7 km/h 68 % 0.00 in /  0 mm
23:51 42.2 °F /  5.7 °C 32.4 °F /  0.2 °C 29.52 in /  999.5 hPa NW 7.1 mph /  11.4 km/h 11.5 mph /  18.5 km/h 68 % 0.00 in /  0 mm
23:56 42.2 °F /  5.7 °C 32.0 °F /  0 °C 29.51 in /  999.2 hPa WSW 9.2 mph /  14.8 km/h 13.8 mph /  22.2 km/h 67 % 0.00 in /  0 mm
Crab Meadow Weather
Compliments of Weather Underground - 3 mb

Script developed by  Jim McMurry - jmcmurry@mwt.net Adapted for the template by  Wim van der Kuil - Leuven-Template.eu

Lightning: Lightning's return stroke is hotter than the surface of the sun. Lightning is 50,000 degrees F. The sun is about 11,000 degrees F.